Aérodrome :
LOGIN :

S'inscrire | Disclaimer

   EN    FR    IT 

 










Légende :    VFR   VFR Marginal   IFR   IFR Intensif   IFR Très Intensif
Visi : 
Plafond : 
>= 8 km
>= 3000ft
5 à 8 km
1000 à 3000 ft
1500m à 5 km
500 à 1000 ft
800 à 1500m
200 à 500 ft
< 800m
< 200 ft
Symboles :   Orages  Brouillard  Fortes neiges  Fortes précipitations  Vent > 20 kt
SIGMETs :   Divers  Orages  Givrage  Turbulence  Onde Orograph.  Cendres Volcan.







- Altitude de l'aérodrome : 913 ft
- Voir les cartes d'approche


LFSX - Luxeuil

DERNIER METAR :
  • 280000Z AUTO 00000KT 9999 BKN035/// BKN049/// OVC060/// ///CB 17/17 Q1013

METARs EXPIRÉS :
  • 272330Z AUTO 00000KT 9999 BKN033/// OVC062/// ///CB 17/17 Q1013
  • 272300Z AUTO VRB01KT 9999 BKN033 BKN050 BKN064 17/17 Q1013
  • 272230Z AUTO 00000KT 9999 FEW023 OVC120 17/17 Q1013
  • 272200Z AUTO 00000KT 9999 FEW010 BKN028 OVC036 18/17 Q1013 TEMPO 4000 SHRA BKN020TCU
  • 272130Z AUTO 00000KT 9999 BKN024 BKN031 OVC130 18/17 Q1013 TEMPO 4000 SHRA BKN020TCU

TAF TAF LFSX
Valide du 27 à 21h jusqu'au 28 à 21h UTC


272000Z 2721/2821 25008KT 9999 BKN015 OVC030
TEMPO 2721/2723 4000 SHRA BKN020TCU
BECMG 2805/2807 BKN030
Pas de NOTAMs connus pour ce terrain.



MET'MAP, la Météo Aéronautique d'un coup d'oeil ! - Copyright ORBIFLY Décembre 2007 - Disclaimer

ORBIFLY MET'MAP TEAM :

Programmation & Développement : Alexandra Zaïnal
Conception & Développement : Baudouin d'Aumeries
Co-Programmation & Développement : Marc-Olivier Méhu
Soutien technique & logistique : Manuel Goepfert

Contact : metmap@orbifly.com




SOURCES & CREDITS :

   NOAA